sensor_id;sensor_type;location;lat;lon;timestamp;noise_LAeq;noise_LA_min;noise_LA_max;noise_LA01;noise_LA95
69617;Laerm;58075;52.218;4.640;2022-07-30T00:00:05;43.08;37.66;49.89;;
69617;Laerm;58075;52.218;4.640;2022-07-30T00:00:16;41.71;37.94;45.07;;
69617;Laerm;58075;52.218;4.640;2022-07-30T00:00:27;40.99;37.83;43.51;;
69617;Laerm;58075;52.218;4.640;2022-07-30T00:00:37;38.07;34.97;41.00;;
69617;Laerm;58075;52.218;4.640;2022-07-30T00:00:47;38.44;35.69;41.28;;
69617;Laerm;58075;52.218;4.640;2022-07-30T00:00:57;38.58;35.76;40.98;;
69617;Laerm;58075;52.218;4.640;2022-07-30T00:01:08;41.01;36.30;44.25;;
69617;Laerm;58075;52.218;4.640;2022-07-30T00:01:18;42.18;38.34;47.34;;
69617;Laerm;58075;52.218;4.640;2022-07-30T00:01:29;42.48;39.06;45.61;;
69617;Laerm;58075;52.218;4.640;2022-07-30T00:01:39;41.36;38.09;44.72;;
69617;Laerm;58075;52.218;4.640;2022-07-30T00:01:50;42.30;39.54;44.56;;
69617;Laerm;58075;52.218;4.640;2022-07-30T00:02:00;44.13;38.43;49.35;;
69617;Laerm;58075;52.218;4.640;2022-07-30T00:02:10;43.31;38.73;47.67;;
69617;Laerm;58075;52.218;4.640;2022-07-30T00:02:21;40.92;37.49;43.94;;
69617;Laerm;58075;52.218;4.640;2022-07-30T00:02:31;40.80;37.98;43.02;;
69617;Laerm;58075;52.218;4.640;2022-07-30T00:02:41;38.82;34.97;43.55;;
69617;Laerm;58075;52.218;4.640;2022-07-30T00:02:52;41.77;36.35;47.95;;
69617;Laerm;58075;52.218;4.640;2022-07-30T00:03:02;41.37;37.55;47.64;;
69617;Laerm;58075;52.218;4.640;2022-07-30T00:03:13;41.02;37.87;45.41;;
69617;Laerm;58075;52.218;4.640;2022-07-30T00:03:23;39.09;36.40;41.62;;
69617;Laerm;58075;52.218;4.640;2022-07-30T00:03:34;36.56;34.13;38.88;;
69617;Laerm;58075;52.218;4.640;2022-07-30T00:03:44;38.63;34.99;43.30;;
69617;Laerm;58075;52.218;4.640;2022-07-30T00:03:54;39.19;35.85;42.66;;
69617;Laerm;58075;52.218;4.640;2022-07-30T00:04:05;39.73;36.64;43.08;;
69617;Laerm;58075;52.218;4.640;2022-07-30T00:04:15;39.86;36.52;44.06;;
69617;Laerm;58075;52.218;4.640;2022-07-30T00:04:25;38.47;35.50;41.72;;
69617;Laerm;58075;52.218;4.640;2022-07-30T00:04:35;38.23;35.72;40.90;;
69617;Laerm;58075;52.218;4.640;2022-07-30T00:04:46;40.65;36.57;43.71;;
69617;Laerm;58075;52.218;4.640;2022-07-30T00:04:56;40.77;37.39;43.67;;
69617;Laerm;58075;52.218;4.640;2022-07-30T00:05:07;39.85;36.80;42.78;;
69617;Laerm;58075;52.218;4.640;2022-07-30T00:05:17;39.84;37.01;42.61;;
69617;Laerm;58075;52.218;4.640;2022-07-30T00:05:27;38.66;35.88;40.94;;
69617;Laerm;58075;52.218;4.640;2022-07-30T00:05:38;38.56;34.98;41.27;;
69617;Laerm;58075;52.218;4.640;2022-07-30T00:05:48;38.97;34.62;42.64;;
69617;Laerm;58075;52.218;4.640;2022-07-30T00:05:58;37.30;34.15;39.73;;
69617;Laerm;58075;52.218;4.640;2022-07-30T00:06:09;41.29;35.54;45.29;;
69617;Laerm;58075;52.218;4.640;2022-07-30T00:06:19;41.73;38.55;44.91;;
69617;Laerm;58075;52.218;4.640;2022-07-30T00:06:29;44.52;40.60;47.87;;
69617;Laerm;58075;52.218;4.640;2022-07-30T00:06:40;43.32;40.74;47.33;;
69617;Laerm;58075;52.218;4.640;2022-07-30T00:06:50;41.31;38.44;45.23;;
69617;Laerm;58075;52.218;4.640;2022-07-30T00:07:01;40.56;37.80;43.65;;
69617;Laerm;58075;52.218;4.640;2022-07-30T00:07:13;37.83;34.63;41.70;;
69617;Laerm;58075;52.218;4.640;2022-07-30T00:07:23;40.64;36.70;43.82;;
69617;Laerm;58075;52.218;4.640;2022-07-30T00:07:33;38.45;35.76;41.63;;
69617;Laerm;58075;52.218;4.640;2022-07-30T00:07:44;38.35;34.73;40.99;;
69617;Laerm;58075;52.218;4.640;2022-07-30T00:07:55;39.26;35.64;42.91;;
69617;Laerm;58075;52.218;4.640;2022-07-30T00:08:05;39.50;35.98;43.77;;
69617;Laerm;58075;52.218;4.640;2022-07-30T00:08:15;39.58;35.98;42.74;;
69617;Laerm;58075;52.218;4.640;2022-07-30T00:08:26;41.06;38.25;47.63;;
69617;Laerm;58075;52.218;4.640;2022-07-30T00:08:36;41.28;38.32;44.76;;
69617;Laerm;58075;52.218;4.640;2022-07-30T00:08:46;43.12;39.79;46.99;;
69617;Laerm;58075;52.218;4.640;2022-07-30T00:08:56;44.65;40.44;48.08;;
69617;Laerm;58075;52.218;4.640;2022-07-30T00:09:07;43.43;39.74;46.38;;
69617;Laerm;58075;52.218;4.640;2022-07-30T00:09:18;40.74;37.61;43.78;;
69617;Laerm;58075;52.218;4.640;2022-07-30T00:09:28;40.43;37.27;44.88;;
69617;Laerm;58075;52.218;4.640;2022-07-30T00:09:38;39.93;36.86;42.61;;
69617;Laerm;58075;52.218;4.640;2022-07-30T00:09:49;40.34;37.99;43.69;;
69617;Laerm;58075;52.218;4.640;2022-07-30T00:10:00;40.16;37.86;43.00;;
69617;Laerm;58075;52.218;4.640;2022-07-30T00:10:10;41.15;38.04;43.34;;
69617;Laerm;58075;52.218;4.640;2022-07-30T00:10:21;41.10;38.49;44.32;;
69617;Laerm;58075;52.218;4.640;2022-07-30T00:10:32;40.87;37.18;44.39;;
69617;Laerm;58075;52.218;4.640;2022-07-30T00:10:42;41.80;37.66;46.80;;
69617;Laerm;58075;52.218;4.640;2022-07-30T00:10:52;38.60;34.75;41.70;;
69617;Laerm;58075;52.218;4.640;2022-07-30T00:11:03;38.55;34.42;42.31;;
69617;Laerm;58075;52.218;4.640;2022-07-30T00:11:13;39.54;36.09;43.91;;
69617;Laerm;58075;52.218;4.640;2022-07-30T00:11:24;39.91;36.28;44.34;;
69617;Laerm;58075;52.218;4.640;2022-07-30T00:11:34;39.42;34.98;43.45;;
69617;Laerm;58075;52.218;4.640;2022-07-30T00:11:45;38.59;35.51;41.45;;
69617;Laerm;58075;52.218;4.640;2022-07-30T00:11:55;41.40;38.05;44.40;;
69617;Laerm;58075;52.218;4.640;2022-07-30T00:12:06;39.58;36.97;42.54;;
69617;Laerm;58075;52.218;4.640;2022-07-30T00:12:16;39.35;36.06;42.46;;
69617;Laerm;58075;52.218;4.640;2022-07-30T00:12:26;39.58;36.24;43.03;;
69617;Laerm;58075;52.218;4.640;2022-07-30T00:12:37;39.88;36.46;44.22;;
69617;Laerm;58075;52.218;4.640;2022-07-30T00:12:47;41.46;36.66;45.76;;
69617;Laerm;58075;52.218;4.640;2022-07-30T00:12:57;38.89;35.74;42.53;;
69617;Laerm;58075;52.218;4.640;2022-07-30T00:13:08;37.41;33.99;41.87;;
69617;Laerm;58075;52.218;4.640;2022-07-30T00:13:18;38.14;34.25;41.78;;
69617;Laerm;58075;52.218;4.640;2022-07-30T00:13:28;39.43;36.74;42.98;;
69617;Laerm;58075;52.218;4.640;2022-07-30T00:13:39;38.93;35.50;43.57;;
69617;Laerm;58075;52.218;4.640;2022-07-30T00:13:49;39.71;36.11;43.71;;
69617;Laerm;58075;52.218;4.640;2022-07-30T00:14:00;38.72;35.48;41.81;;
69617;Laerm;58075;52.218;4.640;2022-07-30T00:14:10;39.35;35.90;42.99;;
69617;Laerm;58075;52.218;4.640;2022-07-30T00:14:21;39.85;36.25;44.81;;
69617;Laerm;58075;52.218;4.640;2022-07-30T00:14:32;37.26;34.58;39.67;;
69617;Laerm;58075;52.218;4.640;2022-07-30T00:14:43;36.75;33.26;39.87;;
69617;Laerm;58075;52.218;4.640;2022-07-30T00:14:54;36.42;32.94;40.58;;
69617;Laerm;58075;52.218;4.640;2022-07-30T00:15:04;37.72;35.66;40.65;;
69617;Laerm;58075;52.218;4.640;2022-07-30T00:15:15;38.26;34.87;41.46;;
69617;Laerm;58075;52.218;4.640;2022-07-30T00:15:25;37.01;33.50;40.29;;
69617;Laerm;58075;52.218;4.640;2022-07-30T00:15:35;41.42;38.58;44.38;;
69617;Laerm;58075;52.218;4.640;2022-07-30T00:15:46;37.77;35.38;41.11;;
69617;Laerm;58075;52.218;4.640;2022-07-30T00:15:56;42.72;36.75;48.07;;
69617;Laerm;58075;52.218;4.640;2022-07-30T00:16:06;48.84;44.51;52.38;;
69617;Laerm;58075;52.218;4.640;2022-07-30T00:16:17;43.41;38.37;47.66;;
69617;Laerm;58075;52.218;4.640;2022-07-30T00:16:27;41.44;35.60;45.96;;
69617;Laerm;58075;52.218;4.640;2022-07-30T00:16:37;38.77;35.92;41.45;;
69617;Laerm;58075;52.218;4.640;2022-07-30T00:16:48;39.44;35.11;43.67;;
69617;Laerm;58075;52.218;4.640;2022-07-30T00:16:58;37.28;34.23;42.09;;
69617;Laerm;58075;52.218;4.640;2022-07-30T00:17:08;39.41;35.32;43.36;;
69617;Laerm;58075;52.218;4.640;2022-07-30T00:17:18;39.10;36.08;42.61;;
69617;Laerm;58075;52.218;4.640;2022-07-30T00:17:29;39.70;37.53;41.88;;
69617;Laerm;58075;52.218;4.640;2022-07-30T00:17:39;38.39;35.32;40.87;;
69617;Laerm;58075;52.218;4.640;2022-07-30T00:17:49;39.10;35.76;43.47;;
69617;Laerm;58075;52.218;4.640;2022-07-30T00:18:00;39.66;35.58;43.95;;
69617;Laerm;58075;52.218;4.640;2022-07-30T00:18:10;39.85;35.78;44.46;;
69617;Laerm;58075;52.218;4.640;2022-07-30T00:18:20;38.98;36.28;42.24;;
69617;Laerm;58075;52.218;4.640;2022-07-30T00:18:31;40.00;37.33;45.51;;
69617;Laerm;58075;52.218;4.640;2022-07-30T00:18:41;42.05;38.55;45.85;;
69617;Laerm;58075;52.218;4.640;2022-07-30T00:18:51;40.66;38.00;43.43;;
69617;Laerm;58075;52.218;4.640;2022-07-30T00:19:01;40.31;38.16;43.08;;
69617;Laerm;58075;52.218;4.640;2022-07-30T00:19:12;41.36;38.09;44.72;;
69617;Laerm;58075;52.218;4.640;2022-07-30T00:19:23;42.35;37.55;45.17;;
69617;Laerm;58075;52.218;4.640;2022-07-30T00:19:33;40.06;37.49;43.50;;
69617;Laerm;58075;52.218;4.640;2022-07-30T00:19:43;39.70;36.34;43.02;;
69617;Laerm;58075;52.218;4.640;2022-07-30T00:19:53;39.30;35.36;41.81;;
69617;Laerm;58075;52.218;4.640;2022-07-30T00:20:04;39.26;35.45;42.73;;
69617;Laerm;58075;52.218;4.640;2022-07-30T00:20:14;37.33;34.09;52.07;;
69617;Laerm;58075;52.218;4.640;2022-07-30T00:20:24;39.77;35.17;43.00;;
69617;Laerm;58075;52.218;4.640;2022-07-30T00:20:35;36.98;34.08;40.23;;
69617;Laerm;58075;52.218;4.640;2022-07-30T00:20:45;37.48;33.87;39.96;;
69617;Laerm;58075;52.218;4.640;2022-07-30T00:20:55;36.17;33.42;39.45;;
69617;Laerm;58075;52.218;4.640;2022-07-30T00:21:06;37.92;34.11;41.27;;
69617;Laerm;58075;52.218;4.640;2022-07-30T00:21:16;39.05;36.24;41.92;;
69617;Laerm;58075;52.218;4.640;2022-07-30T00:21:26;39.92;37.34;42.71;;
69617;Laerm;58075;52.218;4.640;2022-07-30T00:21:37;39.00;35.61;41.38;;
69617;Laerm;58075;52.218;4.640;2022-07-30T00:21:47;37.53;34.14;41.95;;
69617;Laerm;58075;52.218;4.640;2022-07-30T00:21:57;37.26;34.82;40.00;;
69617;Laerm;58075;52.218;4.640;2022-07-30T00:22:07;36.29;33.21;38.98;;
69617;Laerm;58075;52.218;4.640;2022-07-30T00:22:18;36.48;34.45;39.03;;
69617;Laerm;58075;52.218;4.640;2022-07-30T00:22:29;36.06;34.08;38.75;;
69617;Laerm;58075;52.218;4.640;2022-07-30T00:22:39;39.48;35.73;42.90;;
69617;Laerm;58075;52.218;4.640;2022-07-30T00:22:49;39.96;37.59;43.28;;
69617;Laerm;58075;52.218;4.640;2022-07-30T00:23:02;42.23;38.49;45.79;;
69617;Laerm;58075;52.218;4.640;2022-07-30T00:23:13;40.23;37.23;43.32;;
69617;Laerm;58075;52.218;4.640;2022-07-30T00:23:23;40.39;37.73;42.95;;
69617;Laerm;58075;52.218;4.640;2022-07-30T00:23:34;39.60;36.37;44.15;;
69617;Laerm;58075;52.218;4.640;2022-07-30T00:23:44;39.71;36.02;43.22;;
69617;Laerm;58075;52.218;4.640;2022-07-30T00:23:55;39.49;36.37;42.41;;
69617;Laerm;58075;52.218;4.640;2022-07-30T00:24:05;41.06;37.55;45.95;;
69617;Laerm;58075;52.218;4.640;2022-07-30T00:24:16;39.18;35.81;41.38;;
69617;Laerm;58075;52.218;4.640;2022-07-30T00:24:26;39.42;37.06;43.49;;
69617;Laerm;58075;52.218;4.640;2022-07-30T00:24:36;40.95;38.35;53.56;;
69617;Laerm;58075;52.218;4.640;2022-07-30T00:24:47;40.67;37.47;43.17;;
69617;Laerm;58075;52.218;4.640;2022-07-30T00:24:57;40.01;37.89;42.44;;
69617;Laerm;58075;52.218;4.640;2022-07-30T00:25:08;40.13;37.25;42.47;;
69617;Laerm;58075;52.218;4.640;2022-07-30T00:25:18;39.37;36.99;42.80;;
69617;Laerm;58075;52.218;4.640;2022-07-30T00:25:28;39.12;36.23;41.81;;
69617;Laerm;58075;52.218;4.640;2022-07-30T00:25:39;37.22;34.90;41.81;;
69617;Laerm;58075;52.218;4.640;2022-07-30T00:25:49;37.81;34.76;40.44;;
69617;Laerm;58075;52.218;4.640;2022-07-30T00:25:59;39.33;36.42;42.36;;
69617;Laerm;58075;52.218;4.640;2022-07-30T00:26:10;41.95;38.08;47.12;;
69617;Laerm;58075;52.218;4.640;2022-07-30T00:26:20;40.91;37.59;44.95;;
69617;Laerm;58075;52.218;4.640;2022-07-30T00:26:30;42.45;38.57;45.01;;
69617;Laerm;58075;52.218;4.640;2022-07-30T00:26:40;42.21;39.70;44.98;;
69617;Laerm;58075;52.218;4.640;2022-07-30T00:26:51;40.48;37.66;43.63;;
69617;Laerm;58075;52.218;4.640;2022-07-30T00:27:01;39.92;35.86;42.94;;
69617;Laerm;58075;52.218;4.640;2022-07-30T00:27:11;39.50;35.67;43.54;;
69617;Laerm;58075;52.218;4.640;2022-07-30T00:27:23;38.82;33.80;43.49;;
69617;Laerm;58075;52.218;4.640;2022-07-30T00:27:33;40.88;34.25;46.07;;
69617;Laerm;58075;52.218;4.640;2022-07-30T00:27:44;41.01;36.61;44.04;;
69617;Laerm;58075;52.218;4.640;2022-07-30T00:27:54;37.17;33.58;42.17;;
69617;Laerm;58075;52.218;4.640;2022-07-30T00:28:04;39.67;36.07;43.29;;
69617;Laerm;58075;52.218;4.640;2022-07-30T00:28:15;42.13;35.54;46.14;;
69617;Laerm;58075;52.218;4.640;2022-07-30T00:28:25;41.01;37.76;44.30;;
69617;Laerm;58075;52.218;4.640;2022-07-30T00:28:35;39.52;34.86;44.47;;
69617;Laerm;58075;52.218;4.640;2022-07-30T00:28:45;39.47;34.27;45.65;;
69617;Laerm;58075;52.218;4.640;2022-07-30T00:28:56;40.68;37.27;43.78;;
69617;Laerm;58075;52.218;4.640;2022-07-30T00:29:06;41.59;37.19;46.24;;
69617;Laerm;58075;52.218;4.640;2022-07-30T00:29:17;42.15;39.58;44.68;;
69617;Laerm;58075;52.218;4.640;2022-07-30T00:29:27;45.56;40.71;50.00;;
69617;Laerm;58075;52.218;4.640;2022-07-30T00:29:37;42.84;38.38;47.66;;
69617;Laerm;58075;52.218;4.640;2022-07-30T00:29:47;42.72;39.16;45.81;;
69617;Laerm;58075;52.218;4.640;2022-07-30T00:29:58;39.41;36.13;44.51;;
69617;Laerm;58075;52.218;4.640;2022-07-30T00:30:08;39.37;36.41;42.40;;
69617;Laerm;58075;52.218;4.640;2022-07-30T00:30:19;41.09;37.47;44.51;;
69617;Laerm;58075;52.218;4.640;2022-07-30T00:30:29;40.23;36.98;46.23;;
69617;Laerm;58075;52.218;4.640;2022-07-30T00:30:39;39.53;36.23;43.84;;
69617;Laerm;58075;52.218;4.640;2022-07-30T00:30:50;40.38;36.38;44.13;;
69617;Laerm;58075;52.218;4.640;2022-07-30T00:31:00;41.08;38.03;45.43;;
69617;Laerm;58075;52.218;4.640;2022-07-30T00:31:11;40.02;36.95;45.65;;
69617;Laerm;58075;52.218;4.640;2022-07-30T00:31:21;40.48;36.86;44.11;;
69617;Laerm;58075;52.218;4.640;2022-07-30T00:31:31;38.43;35.43;42.43;;
69617;Laerm;58075;52.218;4.640;2022-07-30T00:31:42;38.22;34.76;42.57;;
69617;Laerm;58075;52.218;4.640;2022-07-30T00:31:52;39.20;35.05;42.97;;
69617;Laerm;58075;52.218;4.640;2022-07-30T00:32:02;39.84;35.99;42.91;;
69617;Laerm;58075;52.218;4.640;2022-07-30T00:32:13;39.99;37.20;45.60;;
69617;Laerm;58075;52.218;4.640;2022-07-30T00:32:23;41.89;36.51;44.71;;
69617;Laerm;58075;52.218;4.640;2022-07-30T00:32:33;36.71;34.22;41.51;;
69617;Laerm;58075;52.218;4.640;2022-07-30T00:32:44;36.77;34.39;39.82;;
69617;Laerm;58075;52.218;4.640;2022-07-30T00:32:54;38.16;34.77;41.09;;
69617;Laerm;58075;52.218;4.640;2022-07-30T00:33:05;42.08;37.57;45.23;;
69617;Laerm;58075;52.218;4.640;2022-07-30T00:33:15;40.60;38.08;43.35;;
69617;Laerm;58075;52.218;4.640;2022-07-30T00:33:25;41.29;38.16;44.96;;
69617;Laerm;58075;52.218;4.640;2022-07-30T00:33:36;41.32;37.14;46.14;;
69617;Laerm;58075;52.218;4.640;2022-07-30T00:33:46;41.81;38.47;44.85;;
69617;Laerm;58075;52.218;4.640;2022-07-30T00:33:56;41.82;38.19;46.83;;
69617;Laerm;58075;52.218;4.640;2022-07-30T00:34:07;40.26;37.56;43.23;;
69617;Laerm;58075;52.218;4.640;2022-07-30T00:34:17;40.45;38.11;42.90;;
69617;Laerm;58075;52.218;4.640;2022-07-30T00:34:28;42.50;37.84;46.02;;
69617;Laerm;58075;52.218;4.640;2022-07-30T00:34:38;40.32;36.33;48.10;;
69617;Laerm;58075;52.218;4.640;2022-07-30T00:34:48;41.17;37.93;44.32;;
69617;Laerm;58075;52.218;4.640;2022-07-30T00:34:59;43.84;38.07;51.09;;
69617;Laerm;58075;52.218;4.640;2022-07-30T00:35:09;39.39;36.18;43.22;;
69617;Laerm;58075;52.218;4.640;2022-07-30T00:35:19;39.77;35.96;43.40;;
69617;Laerm;58075;52.218;4.640;2022-07-30T00:35:30;41.77;35.90;48.06;;
69617;Laerm;58075;52.218;4.640;2022-07-30T00:35:40;41.62;38.53;44.30;;
69617;Laerm;58075;52.218;4.640;2022-07-30T00:35:50;40.76;37.37;45.46;;
69617;Laerm;58075;52.218;4.640;2022-07-30T00:36:00;39.89;37.44;42.09;;
69617;Laerm;58075;52.218;4.640;2022-07-30T00:36:11;39.93;36.58;41.56;;
69617;Laerm;58075;52.218;4.640;2022-07-30T00:36:21;41.32;37.99;44.01;;
69617;Laerm;58075;52.218;4.640;2022-07-30T00:36:32;43.25;39.29;46.84;;
69617;Laerm;58075;52.218;4.640;2022-07-30T00:36:42;41.26;38.56;44.81;;
69617;Laerm;58075;52.218;4.640;2022-07-30T00:36:52;38.52;35.12;41.77;;
69617;Laerm;58075;52.218;4.640;2022-07-30T00:37:02;38.92;35.47;41.63;;
69617;Laerm;58075;52.218;4.640;2022-07-30T00:37:13;40.88;37.68;44.91;;
69617;Laerm;58075;52.218;4.640;2022-07-30T00:37:23;42.06;38.34;45.96;;
69617;Laerm;58075;52.218;4.640;2022-07-30T00:37:33;40.26;37.67;42.48;;
69617;Laerm;58075;52.218;4.640;2022-07-30T00:37:44;40.24;36.92;43.55;;
69617;Laerm;58075;52.218;4.640;2022-07-30T00:37:54;40.67;37.38;43.92;;
69617;Laerm;58075;52.218;4.640;2022-07-30T00:38:04;39.17;35.73;43.44;;
69617;Laerm;58075;52.218;4.640;2022-07-30T00:38:14;39.63;36.66;42.64;;
69617;Laerm;58075;52.218;4.640;2022-07-30T00:38:25;39.97;35.62;46.01;;
69617;Laerm;58075;52.218;4.640;2022-07-30T00:38:35;44.87;40.09;50.18;;
69617;Laerm;58075;52.218;4.640;2022-07-30T00:38:45;42.46;36.84;46.17;;
69617;Laerm;58075;52.218;4.640;2022-07-30T00:38:56;41.81;39.07;44.19;;
69617;Laerm;58075;52.218;4.640;2022-07-30T00:39:07;42.36;38.28;48.08;;
69617;Laerm;58075;52.218;4.640;2022-07-30T00:39:17;43.83;39.74;47.55;;
69617;Laerm;58075;52.218;4.640;2022-07-30T00:39:27;43.52;39.19;47.74;;
69617;Laerm;58075;52.218;4.640;2022-07-30T00:39:39;43.60;39.45;47.50;;
69617;Laerm;58075;52.218;4.640;2022-07-30T00:39:49;40.38;36.61;43.80;;
69617;Laerm;58075;52.218;4.640;2022-07-30T00:40:00;39.90;36.92;45.26;;
69617;Laerm;58075;52.218;4.640;2022-07-30T00:40:10;39.01;35.16;43.48;;
69617;Laerm;58075;52.218;4.640;2022-07-30T00:40:20;40.11;37.03;45.29;;
69617;Laerm;58075;52.218;4.640;2022-07-30T00:40:31;39.69;36.51;43.60;;
69617;Laerm;58075;52.218;4.640;2022-07-30T00:40:41;39.95;36.64;43.75;;
69617;Laerm;58075;52.218;4.640;2022-07-30T00:40:51;40.22;37.17;45.16;;
69617;Laerm;58075;52.218;4.640;2022-07-30T00:41:02;38.37;33.39;44.10;;
69617;Laerm;58075;52.218;4.640;2022-07-30T00:41:13;34.50;32.34;38.01;;
69617;Laerm;58075;52.218;4.640;2022-07-30T00:41:23;36.62;33.17;40.75;;
69617;Laerm;58075;52.218;4.640;2022-07-30T00:41:34;38.82;35.43;43.99;;
69617;Laerm;58075;52.218;4.640;2022-07-30T00:41:53;39.89;36.97;43.88;;
69617;Laerm;58075;52.218;4.640;2022-07-30T00:42:03;45.22;39.31;50.28;;
69617;Laerm;58075;52.218;4.640;2022-07-30T00:42:14;42.07;38.75;44.97;;
69617;Laerm;58075;52.218;4.640;2022-07-30T00:42:35;41.94;38.85;45.01;;
69617;Laerm;58075;52.218;4.640;2022-07-30T00:42:46;41.28;37.65;44.64;;
69617;Laerm;58075;52.218;4.640;2022-07-30T00:42:56;41.64;38.50;45.10;;
69617;Laerm;58075;52.218;4.640;2022-07-30T00:43:07;41.78;38.79;44.01;;
69617;Laerm;58075;52.218;4.640;2022-07-30T00:43:17;40.77;38.30;43.35;;
69617;Laerm;58075;52.218;4.640;2022-07-30T00:43:28;40.59;37.45;43.23;;
69617;Laerm;58075;52.218;4.640;2022-07-30T00:43:39;40.11;37.45;42.84;;
69617;Laerm;58075;52.218;4.640;2022-07-30T00:43:49;41.20;37.60;44.47;;
69617;Laerm;58075;52.218;4.640;2022-07-30T00:43:59;39.72;36.74;42.66;;
69617;Laerm;58075;52.218;4.640;2022-07-30T00:44:09;39.25;37.28;41.42;;
69617;Laerm;58075;52.218;4.640;2022-07-30T00:44:20;40.12;36.63;44.13;;
69617;Laerm;58075;52.218;4.640;2022-07-30T00:44:30;40.16;36.80;43.29;;
69617;Laerm;58075;52.218;4.640;2022-07-30T00:44:40;39.15;36.16;42.60;;
69617;Laerm;58075;52.218;4.640;2022-07-30T00:44:51;39.63;36.52;42.15;;
69617;Laerm;58075;52.218;4.640;2022-07-30T00:45:02;42.18;39.09;44.89;;
69617;Laerm;58075;52.218;4.640;2022-07-30T00:45:13;41.80;38.93;44.44;;
69617;Laerm;58075;52.218;4.640;2022-07-30T00:45:23;43.85;40.55;48.07;;
69617;Laerm;58075;52.218;4.640;2022-07-30T00:45:34;43.95;40.51;48.41;;
69617;Laerm;58075;52.218;4.640;2022-07-30T00:45:44;42.39;38.52;46.32;;
69617;Laerm;58075;52.218;4.640;2022-07-30T00:45:55;42.45;38.24;46.34;;
69617;Laerm;58075;52.218;4.640;2022-07-30T00:46:05;42.65;39.04;45.26;;
69617;Laerm;58075;52.218;4.640;2022-07-30T00:46:16;41.35;37.81;44.69;;
69617;Laerm;58075;52.218;4.640;2022-07-30T00:46:26;42.50;39.17;45.07;;
69617;Laerm;58075;52.218;4.640;2022-07-30T00:46:36;42.51;38.83;45.55;;
69617;Laerm;58075;52.218;4.640;2022-07-30T00:46:49;42.42;38.63;46.94;;
69617;Laerm;58075;52.218;4.640;2022-07-30T00:46:59;41.91;35.67;52.20;;
69617;Laerm;58075;52.218;4.640;2022-07-30T00:47:09;36.03;33.47;43.64;;
69617;Laerm;58075;52.218;4.640;2022-07-30T00:47:20;36.19;33.26;41.54;;
69617;Laerm;58075;52.218;4.640;2022-07-30T00:47:30;35.97;33.65;39.12;;
69617;Laerm;58075;52.218;4.640;2022-07-30T00:47:40;37.15;34.02;41.07;;
69617;Laerm;58075;52.218;4.640;2022-07-30T00:47:51;40.92;37.79;43.33;;
69617;Laerm;58075;52.218;4.640;2022-07-30T00:48:01;39.46;35.98;43.38;;
69617;Laerm;58075;52.218;4.640;2022-07-30T00:48:12;39.24;36.38;43.13;;
69617;Laerm;58075;52.218;4.640;2022-07-30T00:48:22;41.83;38.63;44.36;;
69617;Laerm;58075;52.218;4.640;2022-07-30T00:48:33;40.49;37.85;43.93;;
69617;Laerm;58075;52.218;4.640;2022-07-30T00:48:44;41.09;38.26;43.58;;
69617;Laerm;58075;52.218;4.640;2022-07-30T00:48:54;39.75;37.35;43.42;;
69617;Laerm;58075;52.218;4.640;2022-07-30T00:49:05;41.39;38.10;45.79;;
69617;Laerm;58075;52.218;4.640;2022-07-30T00:49:15;39.73;35.23;43.69;;
69617;Laerm;58075;52.218;4.640;2022-07-30T00:49:25;36.98;33.94;41.58;;
69617;Laerm;58075;52.218;4.640;2022-07-30T00:49:36;36.08;33.01;41.64;;
69617;Laerm;58075;52.218;4.640;2022-07-30T00:49:46;37.34;34.25;41.17;;
69617;Laerm;58075;52.218;4.640;2022-07-30T00:49:56;38.11;32.94;44.82;;
69617;Laerm;58075;52.218;4.640;2022-07-30T00:50:08;39.94;36.30;44.23;;
69617;Laerm;58075;52.218;4.640;2022-07-30T00:50:18;41.17;34.73;48.07;;
69617;Laerm;58075;52.218;4.640;2022-07-30T00:50:29;37.18;33.07;42.03;;
69617;Laerm;58075;52.218;4.640;2022-07-30T00:50:39;41.49;37.08;47.80;;
69617;Laerm;58075;52.218;4.640;2022-07-30T00:50:49;42.86;38.53;47.74;;
69617;Laerm;58075;52.218;4.640;2022-07-30T00:51:00;42.05;37.60;46.00;;
69617;Laerm;58075;52.218;4.640;2022-07-30T00:51:10;42.04;38.54;45.83;;
69617;Laerm;58075;52.218;4.640;2022-07-30T00:51:20;41.71;37.79;45.79;;
69617;Laerm;58075;52.218;4.640;2022-07-30T00:51:31;39.93;36.55;44.67;;
69617;Laerm;58075;52.218;4.640;2022-07-30T00:51:41;40.42;36.88;44.68;;
69617;Laerm;58075;52.218;4.640;2022-07-30T00:51:51;41.87;38.17;46.01;;
69617;Laerm;58075;52.218;4.640;2022-07-30T00:52:02;40.39;37.39;42.97;;
69617;Laerm;58075;52.218;4.640;2022-07-30T00:52:12;42.30;38.27;47.23;;
69617;Laerm;58075;52.218;4.640;2022-07-30T00:52:22;42.29;38.05;46.27;;
69617;Laerm;58075;52.218;4.640;2022-07-30T00:52:33;42.14;38.47;45.13;;
69617;Laerm;58075;52.218;4.640;2022-07-30T00:52:44;41.53;38.80;44.34;;
69617;Laerm;58075;52.218;4.640;2022-07-30T00:52:54;39.91;35.93;44.03;;
69617;Laerm;58075;52.218;4.640;2022-07-30T00:53:05;42.94;40.03;46.05;;
69617;Laerm;58075;52.218;4.640;2022-07-30T00:53:15;43.10;39.50;46.57;;
69617;Laerm;58075;52.218;4.640;2022-07-30T00:53:25;42.57;38.59;45.92;;
69617;Laerm;58075;52.218;4.640;2022-07-30T00:53:35;41.42;38.28;44.50;;
69617;Laerm;58075;52.218;4.640;2022-07-30T00:53:46;41.32;37.46;45.29;;
69617;Laerm;58075;52.218;4.640;2022-07-30T00:53:56;40.01;36.28;43.83;;
69617;Laerm;58075;52.218;4.640;2022-07-30T00:54:06;41.47;35.84;47.22;;
69617;Laerm;58075;52.218;4.640;2022-07-30T00:54:17;39.62;36.35;41.79;;
69617;Laerm;58075;52.218;4.640;2022-07-30T00:54:27;40.87;36.76;45.18;;
69617;Laerm;58075;52.218;4.640;2022-07-30T00:54:38;39.78;35.68;43.66;;
69617;Laerm;58075;52.218;4.640;2022-07-30T00:54:48;41.02;36.44;45.74;;
69617;Laerm;58075;52.218;4.640;2022-07-30T00:54:59;36.99;33.95;39.94;;
69617;Laerm;58075;52.218;4.640;2022-07-30T00:55:10;38.67;35.22;43.07;;
69617;Laerm;58075;52.218;4.640;2022-07-30T00:55:20;37.58;34.18;41.83;;
69617;Laerm;58075;52.218;4.640;2022-07-30T00:55:30;39.74;35.30;44.00;;
69617;Laerm;58075;52.218;4.640;2022-07-30T00:55:41;40.67;36.54;45.24;;
69617;Laerm;58075;52.218;4.640;2022-07-30T00:55:51;39.68;34.81;45.46;;
69617;Laerm;58075;52.218;4.640;2022-07-30T00:56:01;38.12;34.53;45.24;;
69617;Laerm;58075;52.218;4.640;2022-07-30T00:56:12;40.68;36.07;45.86;;
69617;Laerm;58075;52.218;4.640;2022-07-30T00:56:22;42.24;37.39;47.75;;
69617;Laerm;58075;52.218;4.640;2022-07-30T00:56:32;41.30;37.55;47.39;;
69617;Laerm;58075;52.218;4.640;2022-07-30T00:56:43;41.59;36.78;47.13;;
69617;Laerm;58075;52.218;4.640;2022-07-30T00:56:53;42.00;37.39;47.92;;
69617;Laerm;58075;52.218;4.640;2022-07-30T00:57:03;38.59;35.28;42.24;;
69617;Laerm;58075;52.218;4.640;2022-07-30T00:57:14;40.97;37.29;43.83;;
69617;Laerm;58075;52.218;4.640;2022-07-30T00:57:24;38.89;36.49;41.65;;
69617;Laerm;58075;52.218;4.640;2022-07-30T00:57:35;41.85;37.16;48.14;;
69617;Laerm;58075;52.218;4.640;2022-07-30T00:57:45;42.57;39.77;46.05;;
69617;Laerm;58075;52.218;4.640;2022-07-30T00:57:55;43.73;39.98;47.73;;
69617;Laerm;58075;52.218;4.640;2022-07-30T00:58:06;44.59;38.58;48.56;;
69617;Laerm;58075;52.218;4.640;2022-07-30T00:58:16;42.28;36.82;48.44;;
69617;Laerm;58075;52.218;4.640;2022-07-30T00:58:27;42.61;38.45;49.34;;
69617;Laerm;58075;52.218;4.640;2022-07-30T00:58:37;41.83;38.20;45.47;;